Time;durP1;ratioP1;P1;durP2;ratioP2;P2;SDS_P1;SDS_P2;PMS_P1;PMS_P2;Temp;Humidity;BMP_temperature;BMP_pressure;BME280_temperature;BME280_humidity;BME280_pressure;Samples;Min_cycle;Max_cycle;Signal;HPM_P1;HPM_P2
2022/01/11 00:01:03;;;;;;;475.37;81.17;;;-1.10;99.90;;;;;;5073234;28;20123;-77
2022/01/11 00:03:29;;;;;;;442.80;80.13;;;-1.10;99.90;;;;;;5073424;28;20040;-80
2022/01/11 00:08:30;;;;;;;427.40;82.67;;;-0.90;99.90;;;;;;5056611;28;20182;-77
2022/01/11 00:11:03;;;;;;;385.13;75.27;;;-1.20;99.90;;;;;;5073375;28;20044;-79
2022/01/11 00:13:30;;;;;;;451.20;75.07;;;-1.30;99.90;;;;;;5073271;28;20040;-78
2022/01/11 00:15:55;;;;;;;365.77;73.53;;;-1.30;99.90;;;;;;5073042;28;20041;-80
2022/01/11 00:18:21;;;;;;;468.77;78.43;;;-1.30;99.90;;;;;;5039691;28;20617;-78
2022/01/11 00:20:47;;;;;;;439.40;78.33;;;-1.40;99.90;;;;;;5040035;28;20722;-80
2022/01/11 00:25:45;;;;;;;433.43;71.33;;;-1.40;99.90;;;;;;5072737;28;20049;-78
2022/01/11 00:28:13;;;;;;;348.40;70.43;;;-1.40;99.90;;;;;;5056091;28;20044;-81
2022/01/11 00:30:41;;;;;;;341.27;69.97;;;-1.40;99.90;;;;;;5072488;28;20053;-78
2022/01/11 00:33:13;;;;;;;272.47;70.07;;;-1.40;99.90;;;;;;5072992;28;20049;-77
2022/01/11 00:35:43;;;;;;;221.73;61.63;;;-1.40;99.90;;;;;;5056127;28;20177;-77
2022/01/11 00:38:17;;;;;;;250.83;66.37;;;-1.50;99.90;;;;;;5055999;28;20048;-80
2022/01/11 00:40:53;;;;;;;328.13;65.40;;;-1.50;99.90;;;;;;5072538;28;20082;-77
2022/01/11 00:43:21;;;;;;;293.53;65.37;;;-1.50;99.90;;;;;;5072528;28;20044;-80
2022/01/11 00:45:48;;;;;;;245.13;63.67;;;-1.60;99.90;;;;;;5056094;28;20082;-80
2022/01/11 00:48:14;;;;;;;201.03;57.73;;;-1.60;99.90;;;;;;5055934;28;20517;-77
2022/01/11 00:50:39;;;;;;;201.10;58.57;;;-1.70;99.90;;;;;;5055716;28;20127;-77
2022/01/11 00:53:07;;;;;;;181.23;56.93;;;-1.60;99.90;;;;;;5072376;28;20044;-80
2022/01/11 00:55:34;;;;;;;153.97;52.73;;;-1.70;99.90;;;;;;5055517;28;20047;-77
2022/01/11 00:58:04;;;;;;;132.77;50.77;;;-1.60;99.90;;;;;;5072247;28;20044;-77
2022/01/11 01:00:31;;;;;;;152.53;51.17;;;-1.60;99.90;;;;;;5056365;28;20074;-80
2022/01/11 01:02:57;;;;;;;161.20;55.67;;;-1.50;99.90;;;;;;5072560;28;20491;-80
2022/01/11 01:05:23;;;;;;;179.27;56.03;;;-1.60;99.90;;;;;;5072333;28;20056;-80
2022/01/11 01:07:50;;;;;;;191.37;58.43;;;-1.60;99.90;;;;;;5055509;28;20131;-80
2022/01/11 01:10:26;;;;;;;163.30;56.80;;;-1.60;99.90;;;;;;5072213;28;20049;-77
2022/01/11 01:12:57;;;;;;;158.70;53.30;;;-1.60;99.90;;;;;;5072119;28;20049;-77
2022/01/11 01:15:24;;;;;;;166.43;55.33;;;-1.70;99.90;;;;;;5055451;28;20074;-80
2022/01/11 01:17:51;;;;;;;158.43;56.27;;;-1.70;99.90;;;;;;5072324;28;20139;-77
2022/01/11 01:20:17;;;;;;;134.77;50.63;;;-1.60;99.90;;;;;;5072024;28;20048;-77
2022/01/11 01:22:43;;;;;;;145.87;51.67;;;-1.80;99.90;;;;;;5071988;28;20123;-80
2022/01/11 01:25:10;;;;;;;150.23;53.40;;;-1.80;99.90;;;;;;5071844;28;20174;-77
2022/01/11 01:27:36;;;;;;;130.97;48.30;;;-1.80;99.90;;;;;;5038743;28;20131;-76
2022/01/11 01:30:04;;;;;;;138.30;49.57;;;-1.80;99.90;;;;;;5054748;28;20139;-80
2022/01/11 01:32:30;;;;;;;116.33;45.80;;;-1.80;99.90;;;;;;5072016;28;20084;-76
2022/01/11 01:35:01;;;;;;;140.60;49.70;;;-1.70;99.90;;;;;;5071819;28;20079;-79
2022/01/11 01:37:26;;;;;;;144.87;50.90;;;-1.70;99.90;;;;;;5071683;28;20041;-80
2022/01/11 01:39:52;;;;;;;154.93;53.13;;;-1.60;99.90;;;;;;5055265;28;20202;-79
2022/01/11 01:42:28;;;;;;;154.77;51.00;;;-1.60;99.90;;;;;;5055265;28;20085;-80
2022/01/11 01:44:54;;;;;;;135.20;50.00;;;-1.50;99.90;;;;;;5071598;28;20055;-76
2022/01/11 01:47:20;;;;;;;141.53;51.57;;;-1.50;99.90;;;;;;5071480;28;20044;-80
2022/01/11 01:49:46;;;;;;;113.37;45.67;;;-1.40;99.90;;;;;;5054999;28;20055;-77
2022/01/11 01:52:14;;;;;;;126.93;48.57;;;-1.40;99.90;;;;;;5054772;28;20036;-79
2022/01/11 01:54:40;;;;;;;126.40;48.40;;;-1.40;99.90;;;;;;5071551;28;20037;-76
2022/01/11 01:57:07;;;;;;;152.40;52.07;;;-1.40;99.90;;;;;;5071434;28;20129;-80
2022/01/11 01:59:33;;;;;;;143.50;52.67;;;-1.40;99.90;;;;;;5071447;28;20045;-76
2022/01/11 02:01:59;;;;;;;142.00;51.10;;;-1.40;99.90;;;;;;5055105;28;20040;-80
2022/01/11 02:04:25;;;;;;;127.83;51.43;;;-1.40;99.90;;;;;;5038162;28;20051;-76
2022/01/11 02:06:51;;;;;;;117.97;46.80;;;-1.50;99.90;;;;;;5039267;28;20040;-75
2022/01/11 02:09:17;;;;;;;130.27;47.70;;;-1.50;99.90;;;;;;5075493;28;20097;-76
2022/01/11 02:11:42;;;;;;;117.97;45.27;;;-1.40;99.90;;;;;;5075752;28;20495;-79
2022/01/11 02:14:09;;;;;;;122.33;47.80;;;-1.40;99.90;;;;;;5075413;28;20102;-75
2022/01/11 02:16:35;;;;;;;107.70;43.97;;;-1.30;99.90;;;;;;5075449;28;20044;-79
2022/01/11 02:19:01;;;;;;;121.03;48.27;;;-1.30;99.90;;;;;;5075170;28;20059;-79
2022/01/11 02:21:27;;;;;;;135.27;50.70;;;-1.20;99.90;;;;;;5058698;28;20123;-79
2022/01/11 02:23:53;;;;;;;131.80;47.77;;;-1.20;99.90;;;;;;5075162;28;20055;-79
2022/01/11 02:26:20;;;;;;;138.57;49.80;;;-1.20;99.90;;;;;;5075241;28;20055;-75
2022/01/11 02:28:46;;;;;;;138.60;51.93;;;-1.10;99.90;;;;;;5058166;28;20044;-79
2022/01/11 02:31:14;;;;;;;159.97;52.43;;;-1.10;99.90;;;;;;5041604;28;20044;-75
2022/01/11 02:33:43;;;;;;;136.17;49.27;;;-1.10;99.90;;;;;;5074922;28;20052;-79
2022/01/11 02:36:18;;;;;;;141.40;50.60;;;-1.10;99.90;;;;;;5075251;28;20495;-74
2022/01/11 02:38:48;;;;;;;140.50;50.73;;;-1.10;99.90;;;;;;5074866;28;20097;-79
2022/01/11 02:41:14;;;;;;;140.40;49.83;;;-1.20;99.90;;;;;;5074992;28;20047;-75
2022/01/11 02:43:46;;;;;;;130.00;49.60;;;-1.20;99.90;;;;;;5074778;28;20450;-79
2022/01/11 02:46:14;;;;;;;149.07;52.87;;;-1.20;99.90;;;;;;5075074;28;20051;-79
2022/01/11 02:48:40;;;;;;;135.10;48.97;;;-1.20;99.90;;;;;;5058175;28;20063;-79
2022/01/11 02:51:06;;;;;;;135.70;49.43;;;-1.20;99.90;;;;;;5058060;28;20124;-76
2022/01/11 02:53:39;;;;;;;134.23;46.93;;;-1.30;99.90;;;;;;5074649;28;20105;-75
2022/01/11 02:56:05;;;;;;;140.98;48.78;;;-1.20;99.90;;;;;;5058039;28;20040;-75
2022/01/11 02:58:31;;;;;;;131.23;46.70;;;-1.20;99.90;;;;;;5074833;28;20556;-75
2022/01/11 03:00:56;;;;;;;157.80;52.60;;;-1.10;99.90;;;;;;5074459;28;20044;-76
2022/01/11 03:03:23;;;;;;;163.23;54.20;;;-1.10;99.90;;;;;;5041298;28;20071;-75
2022/01/11 03:05:51;;;;;;;145.93;52.83;;;-1.10;99.90;;;;;;5074613;28;20513;-74
2022/01/11 03:08:17;;;;;;;175.57;56.13;;;-1.10;99.90;;;;;;5074311;28;20096;-79
2022/01/11 03:10:45;;;;;;;175.07;56.63;;;-1.00;99.90;;;;;;5074433;28;20044;-78
2022/01/11 03:13:12;;;;;;;177.00;54.53;;;-1.00;99.90;;;;;;5074315;28;20045;-75
2022/01/11 03:15:39;;;;;;;167.03;51.40;;;-1.00;99.90;;;;;;5074264;28;20097;-79
2022/01/11 03:18:05;;;;;;;174.17;56.77;;;-0.90;99.90;;;;;;5057547;28;20040;-75
2022/01/11 03:20:33;;;;;;;163.73;54.63;;;-0.90;99.90;;;;;;5074091;28;20048;-76
2022/01/11 03:22:59;;;;;;;137.80;46.07;;;-0.90;99.90;;;;;;5074480;28;20094;-79
2022/01/11 03:25:25;;;;;;;177.23;57.17;;;-0.90;99.90;;;;;;5074276;28;20087;-75
2022/01/11 03:27:51;;;;;;;191.83;56.20;;;-0.90;99.90;;;;;;5074043;28;20048;-79
2022/01/11 03:30:18;;;;;;;203.23;56.40;;;-0.90;99.90;;;;;;5057304;28;20068;-76
2022/01/11 03:32:43;;;;;;;175.93;53.10;;;-0.80;99.90;;;;;;5074075;28;20079;-79
2022/01/11 03:35:10;;;;;;;211.90;57.70;;;-0.90;99.90;;;;;;5073971;28;20087;-75
2022/01/11 03:37:37;;;;;;;209.37;57.67;;;-0.90;99.90;;;;;;5057329;28;20043;-78
2022/01/11 03:40:05;;;;;;;221.90;59.27;;;-0.90;99.90;;;;;;5073607;28;20086;-74
2022/01/11 03:42:31;;;;;;;216.00;57.23;;;-0.90;99.90;;;;;;5073712;28;20040;-79
2022/01/11 03:44:57;;;;;;;226.07;61.90;;;-0.90;99.90;;;;;;5073823;28;20048;-75
2022/01/11 03:47:23;;;;;;;227.27;61.60;;;-0.90;99.90;;;;;;5073640;28;20055;-76
2022/01/11 03:49:49;;;;;;;231.13;61.10;;;-0.90;99.90;;;;;;5057040;28;20047;-74
2022/01/11 03:52:14;;;;;;;217.73;61.70;;;-0.80;99.90;;;;;;5057215;28;20036;-78
2022/01/11 03:55:01;;;;;;;249.00;66.90;;;-0.80;99.90;;;;;;5056938;28;20093;-78
2022/01/11 03:57:28;;;;;;;218.23;61.70;;;-0.80;99.90;;;;;;5073582;28;20052;-74
2022/01/11 03:59:54;;;;;;;226.90;60.87;;;-0.80;99.90;;;;;;5056831;28;20076;-74
2022/01/11 04:02:21;;;;;;;215.57;60.03;;;-0.80;99.90;;;;;;5073420;28;20057;-75
2022/01/11 04:04:52;;;;;;;203.20;57.70;;;-0.90;99.90;;;;;;5073625;28;20048;-79
2022/01/11 04:07:25;;;;;;;201.43;57.27;;;-0.80;99.90;;;;;;5057245;28;20091;-74
2022/01/11 04:09:51;;;;;;;189.00;53.50;;;-0.80;99.90;;;;;;5073470;28;20117;-74
2022/01/11 04:12:18;;;;;;;224.00;64.97;;;-0.70;99.90;;;;;;5073247;28;20040;-78
2022/01/11 04:14:45;;;;;;;223.70;62.93;;;-0.70;99.90;;;;;;5073062;28;20055;-78
2022/01/11 04:17:11;;;;;;;244.83;61.63;;;-0.70;99.90;;;;;;5073133;28;20052;-78
2022/01/11 04:19:37;;;;;;;220.47;59.80;;;-0.70;99.90;;;;;;5056772;28;20471;-78
2022/01/11 04:22:03;;;;;;;257.30;66.87;;;-0.70;99.90;;;;;;5073261;28;20040;-79
2022/01/11 04:24:29;;;;;;;249.80;61.87;;;-0.70;99.90;;;;;;5073291;28;20440;-75
2022/01/11 04:26:55;;;;;;;253.17;63.57;;;-0.70;99.90;;;;;;5072778;28;20120;-79
2022/01/11 04:29:21;;;;;;;247.63;59.97;;;-0.70;99.90;;;;;;5038898;28;20166;-75
2022/01/11 04:31:47;;;;;;;260.20;64.67;;;-0.70;99.90;;;;;;5072842;28;20522;-75
2022/01/11 04:34:13;;;;;;;289.83;66.33;;;-0.70;99.90;;;;;;5072818;28;20127;-78
2022/01/11 04:36:39;;;;;;;220.13;56.83;;;-0.70;99.90;;;;;;5072979;28;20621;-75
2022/01/11 04:39:09;;;;;;;226.73;56.77;;;-0.70;99.90;;;;;;5072872;28;20132;-75
2022/01/11 04:41:35;;;;;;;237.83;61.40;;;-0.70;99.90;;;;;;5072973;28;20052;-78
2022/01/11 04:44:02;;;;;;;196.83;55.30;;;-0.70;99.90;;;;;;5055952;28;20044;-79
2022/01/11 04:46:27;;;;;;;279.13;66.07;;;-0.70;99.90;;;;;;5056207;28;20557;-78
2022/01/11 04:48:54;;;;;;;209.13;52.53;;;-0.70;99.90;;;;;;5072379;28;20041;-75
2022/01/11 04:51:20;;;;;;;176.57;48.23;;;-0.70;99.90;;;;;;5055784;28;20047;-78
2022/01/11 04:53:47;;;;;;;187.17;51.43;;;-0.70;99.90;;;;;;5072533;28;20113;-78
2022/01/11 04:56:13;;;;;;;234.57;57.90;;;-0.70;99.90;;;;;;5055687;28;20076;-78
2022/01/11 04:58:39;;;;;;;186.53;49.77;;;-0.70;99.90;;;;;;5055958;28;20478;-79
2022/01/11 05:01:05;;;;;;;193.93;52.37;;;-0.80;99.90;;;;;;5055570;28;20090;-78
2022/01/11 05:03:31;;;;;;;235.23;58.70;;;-0.70;99.90;;;;;;5072482;28;20052;-78
2022/01/11 05:05:57;;;;;;;175.17;48.90;;;-0.70;99.90;;;;;;5072110;28;20083;-75
2022/01/11 05:08:22;;;;;;;165.47;50.37;;;-0.70;99.90;;;;;;5072075;28;20510;-75
2022/01/11 05:10:48;;;;;;;195.17;53.83;;;-0.70;99.90;;;;;;5072105;28;20383;-75
2022/01/11 05:13:16;;;;;;;172.67;50.37;;;-0.70;99.90;;;;;;5071983;28;20503;-78
2022/01/11 05:15:43;;;;;;;177.17;52.13;;;-0.70;99.90;;;;;;5071983;28;20040;-79
2022/01/11 05:18:10;;;;;;;162.60;47.70;;;-0.70;99.90;;;;;;5071965;28;20075;-75
2022/01/11 05:20:37;;;;;;;177.47;52.17;;;-0.70;99.90;;;;;;5055432;28;20040;-78
2022/01/11 05:23:03;;;;;;;169.87;48.80;;;-0.70;99.90;;;;;;5072406;28;20413;-78
2022/01/11 05:25:30;;;;;;;178.40;49.70;;;-0.70;99.90;;;;;;5071931;28;20135;-78
2022/01/11 05:27:55;;;;;;;195.70;52.70;;;-0.70;99.90;;;;;;5071717;28;20052;-78
2022/01/11 05:30:21;;;;;;;158.23;47.60;;;-0.70;99.90;;;;;;5071612;28;20059;-78
2022/01/11 05:32:48;;;;;;;176.43;51.60;;;-0.70;99.90;;;;;;5072083;28;20048;-78
2022/01/11 05:35:15;;;;;;;173.13;50.17;;;-0.80;99.90;;;;;;5072233;28;20051;-75
2022/01/11 05:37:41;;;;;;;162.73;47.60;;;-0.70;99.90;;;;;;5071669;28;20047;-75
2022/01/11 05:40:08;;;;;;;167.43;47.63;;;-0.80;99.90;;;;;;5055325;28;20056;-74
2022/01/11 05:42:35;;;;;;;164.70;48.40;;;-0.80;99.90;;;;;;5070880;28;20125;-75
2022/01/11 05:45:02;;;;;;;158.67;46.80;;;-0.80;99.90;;;;;;5071632;28;20045;-75
2022/01/11 05:47:27;;;;;;;154.00;48.23;;;-0.80;99.90;;;;;;5038480;28;20083;-74
2022/01/11 05:49:53;;;;;;;155.53;47.87;;;-0.80;99.90;;;;;;5071670;28;20556;-74
2022/01/11 05:52:19;;;;;;;130.13;38.83;;;-0.80;99.90;;;;;;5071554;28;20521;-78
2022/01/11 05:54:45;;;;;;;142.00;43.97;;;-0.80;99.90;;;;;;5054828;28;20041;-78
2022/01/11 05:57:11;;;;;;;135.33;42.87;;;-0.80;99.90;;;;;;5071747;28;20067;-78
2022/01/11 05:59:36;;;;;;;125.40;42.43;;;-0.90;99.90;;;;;;5038580;28;20082;-74
2022/01/11 06:02:02;;;;;;;146.93;44.60;;;-0.80;99.90;;;;;;5071364;28;20041;-78
2022/01/11 06:04:28;;;;;;;140.90;44.00;;;-0.80;99.90;;;;;;5054728;28;20083;-78
2022/01/11 06:06:54;;;;;;;126.50;41.43;;;-0.80;99.90;;;;;;5071259;28;20040;-78
2022/01/11 06:09:19;;;;;;;110.17;38.63;;;-0.80;99.90;;;;;;5071468;28;20041;-78
2022/01/11 06:11:45;;;;;;;124.00;38.70;;;-0.80;99.90;;;;;;5055142;28;20036;-78
2022/01/11 06:14:11;;;;;;;110.67;40.57;;;-0.70;99.90;;;;;;5055088;28;20143;-78
2022/01/11 06:16:36;;;;;;;103.03;34.40;;;-0.70;99.90;;;;;;5054904;28;20056;-75
2022/01/11 06:19:03;;;;;;;103.67;37.00;;;-0.80;99.90;;;;;;5071167;28;20127;-78
2022/01/11 06:21:29;;;;;;;103.70;35.97;;;-0.80;99.90;;;;;;5071290;28;20040;-78
2022/01/11 06:23:55;;;;;;;118.40;40.03;;;-0.90;99.90;;;;;;5071111;28;20403;-78
2022/01/11 06:26:21;;;;;;;118.67;38.33;;;-0.90;99.90;;;;;;5071526;28;20483;-75
2022/01/11 06:28:47;;;;;;;122.37;38.50;;;-0.80;99.90;;;;;;5054353;28;20055;-75
2022/01/11 06:31:13;;;;;;;114.70;37.90;;;-0.90;99.90;;;;;;5054483;28;20163;-77
2022/01/11 06:33:38;;;;;;;115.90;39.13;;;-0.90;99.90;;;;;;5054515;28;20049;-75
2022/01/11 06:36:10;;;;;;;107.03;37.23;;;-0.90;99.90;;;;;;5071612;28;20036;-78
2022/01/11 06:38:40;;;;;;;103.70;37.00;;;-0.90;99.90;;;;;;5071147;28;20049;-76
2022/01/11 06:41:07;;;;;;;105.43;36.73;;;-0.90;99.90;;;;;;5071084;28;20048;-78
2022/01/11 06:43:32;;;;;;;121.00;38.13;;;-1.00;99.90;;;;;;5071050;28;20094;-78
2022/01/11 06:45:58;;;;;;;85.33;34.40;;;-0.90;99.90;;;;;;5054215;28;20052;-78
2022/01/11 06:48:24;;;;;;;120.63;38.17;;;-0.90;99.90;;;;;;5070894;28;20044;-75
2022/01/11 06:50:49;;;;;;;105.07;36.10;;;-0.90;99.90;;;;;;5070921;28;20037;-75
2022/01/11 06:53:15;;;;;;;106.03;37.23;;;-0.90;99.90;;;;;;5072576;28;20499;-78
2022/01/11 06:55:41;;;;;;;104.70;37.67;;;-0.90;99.90;;;;;;5074656;28;20090;-77
2022/01/11 06:58:07;;;;;;;99.80;36.03;;;-0.80;99.90;;;;;;5074538;28;20052;-78
2022/01/11 07:00:33;;;;;;;104.10;38.20;;;-0.90;99.90;;;;;;5057994;28;20128;-74
2022/01/11 07:02:59;;;;;;;99.47;36.33;;;-1.00;99.90;;;;;;5041661;28;20037;-78
2022/01/11 07:05:25;;;;;;;101.43;35.17;;;-1.00;99.90;;;;;;5058063;28;20047;-78
2022/01/11 07:07:51;;;;;;;89.40;34.23;;;-0.90;99.90;;;;;;5057868;28;20048;-78
2022/01/11 07:10:17;;;;;;;92.00;33.47;;;-1.00;99.90;;;;;;5074835;28;20048;-75
2022/01/11 07:12:42;;;;;;;80.30;32.33;;;-1.00;99.90;;;;;;5057775;28;20093;-78
2022/01/11 07:15:10;;;;;;;82.30;31.67;;;-0.90;99.90;;;;;;5074203;28;20049;-74
2022/01/11 07:17:37;;;;;;;79.57;28.30;;;-1.00;99.90;;;;;;5074261;28;20041;-78
2022/01/11 07:20:04;;;;;;;102.47;35.33;;;-1.00;99.90;;;;;;5074227;28;20090;-74
2022/01/11 07:22:30;;;;;;;96.67;34.60;;;-1.00;99.90;;;;;;5074259;28;20147;-75
2022/01/11 07:24:55;;;;;;;96.90;35.37;;;-1.00;99.90;;;;;;5074325;28;20411;-78
2022/01/11 07:27:21;;;;;;;97.13;33.30;;;-1.00;99.90;;;;;;5057441;28;20044;-75
2022/01/11 07:29:47;;;;;;;77.20;30.80;;;-0.90;99.90;;;;;;5074052;28;20552;-78
2022/01/11 07:32:13;;;;;;;92.70;34.03;;;-1.00;99.90;;;;;;5074095;28;20067;-74
2022/01/11 07:34:39;;;;;;;79.70;30.90;;;-1.00;99.90;;;;;;5074221;28;20523;-78
2022/01/11 07:37:04;;;;;;;80.07;30.57;;;-0.90;99.90;;;;;;5073940;28;20044;-75
2022/01/11 07:39:30;;;;;;;89.23;33.20;;;-1.00;99.90;;;;;;5073813;28;20045;-78
2022/01/11 07:41:56;;;;;;;87.13;33.30;;;-1.00;99.90;;;;;;5057215;28;20044;-78
2022/01/11 07:44:22;;;;;;;79.00;31.07;;;-1.00;99.90;;;;;;5056983;28;20044;-75
2022/01/11 07:46:47;;;;;;;91.00;32.90;;;-0.90;99.90;;;;;;5073636;28;20048;-78
2022/01/11 07:49:14;;;;;;;88.23;29.97;;;-1.00;99.90;;;;;;5073706;28;20128;-75
2022/01/11 07:51:40;;;;;;;75.27;29.73;;;-1.00;99.90;;;;;;5073608;28;20123;-78
2022/01/11 07:54:06;;;;;;;90.83;33.00;;;-1.00;99.90;;;;;;5073494;28;20044;-75
2022/01/11 07:56:32;;;;;;;74.80;28.37;;;-1.00;99.90;;;;;;5056908;28;20052;-78
2022/01/11 07:58:58;;;;;;;69.50;26.97;;;-1.00;99.90;;;;;;5073414;28;20059;-78
2022/01/11 08:01:23;;;;;;;65.37;27.00;;;-0.90;99.90;;;;;;5057156;28;20103;-75
2022/01/11 08:03:49;;;;;;;68.27;28.10;;;-0.90;99.90;;;;;;5056245;28;20044;-74
2022/01/11 08:06:15;;;;;;;68.20;27.67;;;-1.00;99.90;;;;;;5056220;28;20044;-75
2022/01/11 08:08:41;;;;;;;70.97;28.93;;;-1.00;99.90;;;;;;5039896;28;20044;-76
2022/01/11 08:11:07;;;;;;;62.53;25.97;;;-0.90;99.90;;;;;;5073198;28;20106;-78
2022/01/11 08:13:33;;;;;;;57.67;22.07;;;-0.90;99.90;;;;;;5056341;28;20044;-74
2022/01/11 08:15:59;;;;;;;51.37;21.73;;;-0.90;99.90;;;;;;5073037;28;20059;-78
2022/01/11 08:18:25;;;;;;;69.63;27.77;;;-0.80;99.90;;;;;;5073329;28;20093;-78
2022/01/11 08:20:50;;;;;;;60.03;26.20;;;-0.80;99.90;;;;;;5056201;28;20051;-78
2022/01/11 08:23:16;;;;;;;72.27;28.13;;;-0.80;99.90;;;;;;5056393;28;20044;-76
2022/01/11 08:25:42;;;;;;;61.70;25.93;;;-0.90;99.90;;;;;;5056298;28;20040;-78
2022/01/11 08:28:09;;;;;;;62.83;27.33;;;-0.90;99.90;;;;;;5072723;28;20044;-78
2022/01/11 08:30:36;;;;;;;59.57;25.90;;;-0.80;99.90;;;;;;5039723;28;20506;-78
2022/01/11 08:33:06;;;;;;;60.70;25.40;;;-0.80;99.90;;;;;;5072754;28;20113;-75
2022/01/11 08:35:32;;;;;;;57.70;24.97;;;-0.90;99.90;;;;;;5073072;28;20083;-78
2022/01/11 08:37:59;;;;;;;69.30;26.83;;;-0.90;99.90;;;;;;5072769;28;20049;-75
2022/01/11 08:40:26;;;;;;;52.77;24.60;;;-0.90;99.90;;;;;;5072799;28;20072;-75
2022/01/11 08:42:52;;;;;;;62.40;25.47;;;-0.90;99.90;;;;;;5055933;28;20040;-75
2022/01/11 08:45:18;;;;;;;61.07;25.30;;;-0.90;99.90;;;;;;5072709;28;20087;-76
2022/01/11 08:47:45;;;;;;;58.57;22.60;;;-0.90;99.90;;;;;;5072443;28;20052;-78
2022/01/11 08:50:11;;;;;;;53.10;22.63;;;-0.80;99.90;;;;;;5072530;28;20086;-75
2022/01/11 08:52:39;;;;;;;54.07;24.20;;;-0.90;99.90;;;;;;5072474;28;20041;-75
2022/01/11 08:55:07;;;;;;;36.70;16.17;;;-0.90;99.90;;;;;;5072623;28;20560;-78
2022/01/11 08:57:34;;;;;;;57.63;24.50;;;-0.90;99.90;;;;;;5072326;28;20049;-75
2022/01/11 09:00:02;;;;;;;37.17;16.73;;;-0.90;99.90;;;;;;5072333;28;20558;-78
2022/01/11 09:02:28;;;;;;;55.27;23.27;;;-0.90;99.90;;;;;;5056173;28;20483;-75
2022/01/11 09:04:54;;;;;;;55.27;24.60;;;-0.90;99.90;;;;;;5055623;28;20052;-75
2022/01/11 09:07:20;;;;;;;54.20;21.43;;;-0.90;99.90;;;;;;5055382;28;20094;-75
2022/01/11 09:09:46;;;;;;;52.20;21.80;;;-0.90;99.90;;;;;;5072107;28;20131;-75
2022/01/11 09:12:14;;;;;;;53.83;20.63;;;-0.90;99.90;;;;;;5055389;28;20080;-77
2022/01/11 09:14:41;;;;;;;48.57;22.53;;;-0.90;99.90;;;;;;5055429;28;20073;-78
2022/01/11 09:17:07;;;;;;;62.53;25.20;;;-0.90;99.90;;;;;;5072106;28;20495;-75
2022/01/11 09:19:33;;;;;;;56.97;23.47;;;-0.90;99.90;;;;;;5071873;28;20045;-76
2022/01/11 09:21:59;;;;;;;58.93;24.20;;;-0.90;99.90;;;;;;5071877;28;20048;-78
2022/01/11 09:24:29;;;;;;;55.00;23.03;;;-0.80;99.90;;;;;;5055302;28;20044;-78
2022/01/11 09:26:59;;;;;;;45.33;21.17;;;-0.80;99.90;;;;;;5054998;28;20082;-75
2022/01/11 09:29:27;;;;;;;51.63;21.67;;;-0.80;99.90;;;;;;5055135;28;20068;-75
2022/01/11 09:31:56;;;;;;;47.63;20.67;;;-0.80;99.90;;;;;;5054989;28;20134;-75
2022/01/11 09:34:22;;;;;;;39.40;16.57;;;-0.80;99.90;;;;;;5071841;28;20052;-75
2022/01/11 09:36:48;;;;;;;46.97;21.30;;;-0.80;99.90;;;;;;5055032;28;20051;-75
2022/01/11 09:39:14;;;;;;;51.80;22.47;;;-0.80;99.90;;;;;;5071544;28;20045;-75
2022/01/11 09:41:41;;;;;;;62.43;25.70;;;-0.70;99.90;;;;;;5071624;28;20049;-78
2022/01/11 09:44:07;;;;;;;52.97;23.07;;;-0.70;99.90;;;;;;5071433;28;20103;-76
2022/01/11 09:46:34;;;;;;;54.13;23.07;;;-0.70;99.90;;;;;;5038674;28;20086;-75
2022/01/11 09:49:00;;;;;;;52.70;22.47;;;-0.50;99.90;;;;;;5071285;28;20044;-75
2022/01/11 09:51:26;;;;;;;56.73;23.20;;;-0.50;99.90;;;;;;5071469;28;20037;-78
2022/01/11 09:53:53;;;;;;;59.30;22.53;;;-0.60;99.90;;;;;;5054730;28;20487;-75
2022/01/11 09:56:18;;;;;;;62.87;24.27;;;-0.60;99.90;;;;;;5071446;28;20121;-79
2022/01/11 09:58:45;;;;;;;51.50;23.90;;;-0.50;99.90;;;;;;5054942;28;20044;-78
2022/01/11 10:01:11;;;;;;;41.10;16.63;;;-0.60;99.90;;;;;;5071339;28;20044;-76
2022/01/11 10:04:02;;;;;;;44.03;17.50;;;-0.60;99.90;;;;;;5054695;28;20045;-79
2022/01/11 10:06:28;;;;;;;41.10;19.43;;;-0.60;99.90;;;;;;5071423;28;20047;-75
2022/01/11 10:09:16;;;;;;;26.23;13.13;;;-0.60;99.90;;;;;;5054474;28;20392;-76
2022/01/11 10:11:44;;;;;;;27.20;13.27;;;-0.60;99.90;;;;;;5071524;28;20049;-76
2022/01/11 10:14:17;;;;;;;35.27;16.43;;;-0.60;99.90;;;;;;5054496;28;20049;-78
2022/01/11 10:16:43;;;;;;;48.03;21.42;;;-0.60;99.90;;;;;;5071269;28;20036;-76
2022/01/11 10:19:40;;;;;;;42.17;19.10;;;-0.60;99.90;;;;;;5054721;28;20482;-76
2022/01/11 10:22:21;;;;;;;29.73;14.70;;;-0.60;99.90;;;;;;5037329;28;20664;-78
2022/01/11 10:24:49;;;;;;;38.43;17.20;;;-0.50;99.90;;;;;;5071488;28;20360;-78
2022/01/11 10:27:30;;;;;;;53.87;23.60;;;-0.50;99.90;;;;;;5071204;28;20131;-75
2022/01/11 10:29:57;;;;;;;40.43;19.67;;;-0.40;99.90;;;;;;5075186;28;20040;-76
2022/01/11 10:32:25;;;;;;;49.33;24.80;;;-0.40;99.90;;;;;;5075144;28;20082;-78
2022/01/11 10:34:55;;;;;;;43.97;22.27;;;-0.30;99.90;;;;;;5058753;28;20375;-77
2022/01/11 10:37:48;;;;;;;55.77;24.67;;;-0.30;99.90;;;;;;5058358;28;20047;-76
2022/01/11 10:40:22;;;;;;;46.72;20.75;;;-0.20;99.90;;;;;;5074036;28;20135;-78
2022/01/11 10:42:56;;;;;;;35.37;15.90;;;-0.10;99.90;;;;;;5074847;28;20047;-78
2022/01/11 10:45:24;;;;;;;;;;;0.00;99.90;;;;;;5075224;28;20048;-78
2022/01/11 10:47:56;;;;;;;54.53;25.67;;;0.00;99.90;;;;;;5058228;28;20290;-75
2022/01/11 10:50:28;;;;;;;48.97;23.10;;;0.10;99.90;;;;;;5074834;28;20052;-78
2022/01/11 10:53:00;;;;;;;54.53;25.60;;;0.30;99.90;;;;;;5074729;28;20046;-75
2022/01/11 10:55:29;;;;;;;34.10;17.03;;;0.30;99.90;;;;;;5057896;28;20045;-78
2022/01/11 10:58:01;;;;;;;56.67;25.77;;;0.40;99.90;;;;;;5074602;28;20105;-78
2022/01/11 11:00:28;;;;;;;33.80;17.23;;;0.40;99.90;;;;;;5074950;28;20045;-78
2022/01/11 11:03:08;;;;;;;38.63;20.67;;;0.40;99.90;;;;;;5057744;28;20043;-78
2022/01/11 11:05:40;;;;;;;33.90;16.77;;;0.40;99.90;;;;;;5074603;28;20040;-78
2022/01/11 11:08:34;;;;;;;34.60;17.53;;;0.40;99.90;;;;;;5074575;28;20616;-78
2022/01/11 11:11:04;;;;;;;43.67;22.90;;;0.50;99.90;;;;;;5074348;28;20304;-78
2022/01/11 11:13:33;;;;;;;46.33;24.57;;;0.60;99.90;;;;;;5074581;28;20471;-78
2022/01/11 11:16:26;;;;;;;46.40;24.53;;;0.90;99.90;;;;;;5057785;28;20510;-75
2022/01/11 11:18:57;;;;;;;54.05;28.80;;;0.90;99.90;;;;;;5074433;28;20398;-75
2022/01/11 11:21:37;;;;;;;38.47;18.52;;;1.10;99.90;;;;;;5074255;28;20196;-75
2022/01/11 11:24:10;;;;;;;41.23;21.37;;;1.20;99.90;;;;;;5057525;28;20047;-78
2022/01/11 11:26:48;;;;;;;55.17;30.42;;;1.20;99.90;;;;;;5074145;28;20055;-75
2022/01/11 11:29:14;;;;;;;47.78;24.33;;;1.40;99.90;;;;;;5074064;28;20056;-78
2022/01/11 11:31:41;;;;;;;60.30;31.08;;;1.70;99.90;;;;;;5073988;28;20049;-76
2022/01/11 11:34:08;;;;;;;32.97;16.65;;;1.60;99.90;;;;;;5073976;28;20053;-77
2022/01/11 11:36:36;;;;;;;36.75;20.90;;;1.60;99.90;;;;;;5073945;28;20044;-78
2022/01/11 11:39:10;;;;;;;30.83;15.60;;;1.70;99.90;;;;;;5072873;28;20048;-76
2022/01/11 11:41:44;;;;;;;30.87;16.47;;;1.60;99.90;;;;;;5057190;28;20048;-76
2022/01/11 11:44:26;;;;;;;32.08;18.52;;;1.50;99.90;;;;;;5057135;28;20072;-78
2022/01/11 11:46:56;;;;;;;33.70;17.65;;;1.50;99.90;;;;;;5073747;28;20040;-76
2022/01/11 11:49:44;;;;;;;34.67;17.52;;;1.50;99.90;;;;;;5073708;28;20036;-76
2022/01/11 11:52:28;;;;;;;29.53;15.23;;;1.50;99.90;;;;;;5057253;28;20417;-76
2022/01/11 11:55:15;;;;;;;39.17;19.63;;;1.50;99.90;;;;;;5073690;28;20051;-76
2022/01/11 11:57:41;;;;;;;29.88;17.58;;;1.50;99.90;;;;;;5073751;28;20475;-79
2022/01/11 12:00:29;;;;;;;38.25;20.02;;;1.50;99.90;;;;;;5073775;28;20048;-76
2022/01/11 12:02:56;;;;;;;36.83;21.73;;;1.40;99.90;;;;;;5073406;28;20110;-76
2022/01/11 12:05:37;;;;;;;34.88;21.25;;;1.50;99.90;;;;;;5073463;28;20106;-79
2022/01/11 12:08:31;;;;;;;42.30;23.27;;;1.50;99.90;;;;;;5073286;28;20044;-76
2022/01/11 12:11:02;;;;;;;31.45;19.42;;;1.50;99.90;;;;;;5056800;28;20475;-76
2022/01/11 12:13:42;;;;;;;32.10;17.75;;;1.50;99.90;;;;;;5073557;28;20567;-76
2022/01/11 12:16:28;;;;;;;34.85;18.73;;;1.50;99.90;;;;;;5073746;28;20394;-76
2022/01/11 12:18:56;;;;;;;33.73;18.90;;;1.50;99.90;;;;;;5073285;28;20502;-79
2022/01/11 12:21:24;;;;;;;35.67;19.97;;;1.50;99.90;;;;;;5056671;28;20510;-79
2022/01/11 12:23:56;;;;;;;28.42;15.10;;;1.50;99.90;;;;;;5056432;28;20053;-76
2022/01/11 12:26:25;;;;;;;39.17;19.83;;;1.60;99.90;;;;;;5056889;28;20047;-79
2022/01/11 12:29:10;;;;;;;34.53;18.60;;;1.60;99.90;;;;;;5056218;28;20049;-76
2022/01/11 12:31:50;;;;;;;28.98;13.27;;;1.60;99.90;;;;;;5072659;28;20052;-79
2022/01/11 12:34:16;;;;;;;19.05;10.05;;;1.70;99.90;;;;;;5072758;28;20083;-77